createdAt,value
2023-06-26T00:00:48.773Z,44.54
2023-06-26T00:01:48.735Z,44.48
2023-06-26T00:02:48.801Z,44.41
2023-06-26T00:03:48.835Z,44.37
2023-06-26T00:04:48.823Z,44.29
2023-06-26T00:05:48.865Z,44.31
2023-06-26T00:06:48.937Z,44.28
2023-06-26T00:07:48.956Z,44.27
2023-06-26T00:08:48.986Z,44.28
2023-06-26T00:09:49.036Z,44.24
2023-06-26T00:10:49.064Z,44.27
2023-06-26T00:11:49.097Z,44.25
2023-06-26T00:12:49.129Z,44.21
2023-06-26T00:13:49.192Z,44.20
2023-06-26T00:14:49.256Z,44.19
2023-06-26T00:15:49.232Z,44.21
2023-06-26T00:16:49.271Z,44.21
2023-06-26T00:17:49.345Z,44.19
2023-06-26T00:18:49.352Z,44.20
2023-06-26T00:19:49.357Z,44.20
2023-06-26T00:20:49.400Z,44.19
2023-06-26T00:21:49.427Z,44.18
2023-06-26T00:22:49.455Z,44.17
2023-06-26T00:23:49.489Z,44.15
2023-06-26T00:24:49.510Z,44.15
2023-06-26T00:25:49.544Z,44.11
2023-06-26T00:26:49.575Z,44.09
2023-06-26T00:27:49.637Z,44.09
2023-06-26T00:28:49.690Z,44.06
2023-06-26T00:29:49.764Z,44.08
2023-06-26T00:30:49.795Z,44.07
2023-06-26T00:31:49.779Z,44.05
2023-06-26T00:32:49.933Z,44.03
2023-06-26T00:33:49.855Z,44.03
2023-06-26T00:34:49.914Z,44.00
2023-06-26T00:35:49.913Z,43.97
2023-06-26T00:36:49.950Z,44.00
2023-06-26T00:37:49.978Z,43.97
2023-06-26T00:38:50.022Z,43.96
2023-06-26T00:39:50.074Z,43.94
2023-06-26T00:40:50.121Z,43.93
2023-06-26T00:41:50.167Z,43.93
2023-06-26T00:42:50.217Z,43.93
2023-06-26T00:43:50.261Z,43.91
2023-06-26T00:44:50.298Z,43.91
2023-06-26T00:45:50.398Z,43.91
2023-06-26T00:46:50.378Z,43.89
2023-06-26T00:47:50.467Z,43.87
2023-06-26T00:48:50.445Z,43.86
2023-06-26T00:49:50.457Z,43.83
2023-06-26T00:50:50.508Z,43.84
2023-06-26T00:51:50.552Z,43.84
2023-06-26T00:52:50.598Z,43.83
2023-06-26T00:53:50.632Z,43.81
2023-06-26T00:54:50.674Z,43.80
2023-06-26T00:55:50.701Z,43.78
2023-06-26T00:56:50.724Z,43.76
2023-06-26T00:57:50.761Z,43.73
2023-06-26T00:58:50.770Z,43.73
2023-06-26T00:59:50.813Z,43.77
2023-06-26T01:00:50.850Z,43.74
2023-06-26T01:01:50.972Z,43.75
2023-06-26T01:02:51.014Z,43.78
2023-06-26T01:03:50.980Z,43.77
2023-06-26T01:04:51.035Z,43.74
2023-06-26T01:05:51.089Z,43.76
2023-06-26T01:06:51.192Z,43.71
2023-06-26T01:07:52.880Z,43.72
2023-06-26T01:08:51.181Z,43.72
2023-06-26T01:09:51.171Z,43.71
2023-06-26T01:10:51.173Z,43.71
2023-06-26T01:11:51.160Z,43.70
2023-06-26T01:12:51.173Z,43.71
2023-06-26T01:13:51.155Z,43.69
2023-06-26T01:14:51.154Z,43.72
2023-06-26T01:15:51.148Z,43.68
2023-06-26T01:16:51.146Z,43.70
2023-06-26T01:17:51.187Z,43.69
2023-06-26T01:18:51.108Z,43.66
2023-06-26T01:19:51.109Z,43.64
2023-06-26T01:20:51.101Z,43.63
2023-06-26T01:21:51.087Z,43.64
2023-06-26T01:22:51.089Z,43.61
2023-06-26T01:23:51.085Z,43.60
2023-06-26T01:24:51.071Z,43.58
2023-06-26T01:25:51.075Z,43.58
2023-06-26T01:26:51.059Z,43.54
2023-06-26T01:27:51.061Z,43.54
2023-06-26T01:28:51.044Z,43.57
2023-06-26T01:29:51.046Z,43.55
2023-06-26T01:30:51.038Z,43.56
2023-06-26T01:31:51.193Z,43.56
2023-06-26T01:32:51.067Z,43.56
2023-06-26T01:33:51.056Z,43.55
2023-06-26T01:34:51.008Z,43.54
2023-06-26T01:35:51.007Z,43.55
2023-06-26T01:36:51.003Z,43.54
2023-06-26T01:37:51.019Z,43.54
2023-06-26T01:38:51.065Z,43.55
2023-06-26T01:39:51.109Z,43.52
2023-06-26T01:40:51.164Z,43.51
2023-06-26T01:41:51.219Z,43.53
2023-06-26T01:42:51.282Z,43.53
2023-06-26T01:43:51.328Z,43.53
2023-06-26T01:44:51.388Z,43.49
2023-06-26T01:45:51.470Z,43.50
2023-06-26T01:46:51.488Z,43.52
2023-06-26T01:47:51.615Z,43.51
2023-06-26T01:48:51.626Z,43.52
2023-06-26T01:49:51.696Z,43.50
2023-06-26T01:50:51.723Z,43.51
2023-06-26T01:51:51.773Z,43.48
2023-06-26T01:52:51.800Z,43.49
2023-06-26T01:53:51.837Z,43.51
2023-06-26T01:54:51.864Z,43.48
2023-06-26T01:55:51.913Z,43.47
2023-06-26T01:56:51.929Z,43.46
2023-06-26T01:57:51.984Z,43.44
2023-06-26T01:58:52.071Z,43.47
2023-06-26T01:59:52.096Z,43.43
2023-06-26T02:00:52.142Z,43.43
2023-06-26T02:01:52.280Z,43.43
2023-06-26T02:02:52.316Z,43.42
2023-06-26T02:03:52.322Z,43.39
2023-06-26T02:04:52.349Z,43.37
2023-06-26T02:05:52.456Z,43.36
2023-06-26T02:06:52.531Z,43.35
2023-06-26T02:07:52.546Z,43.37
2023-06-26T02:08:52.546Z,43.34
2023-06-26T02:09:52.608Z,43.38
2023-06-26T02:10:52.657Z,43.35
2023-06-26T02:11:52.686Z,43.35
2023-06-26T02:12:52.727Z,43.35
2023-06-26T02:13:52.771Z,43.35
2023-06-26T02:14:52.807Z,43.36
2023-06-26T02:15:52.843Z,43.32
2023-06-26T02:16:52.883Z,43.30
2023-06-26T02:17:52.941Z,43.31
2023-06-26T02:18:52.951Z,43.29
2023-06-26T02:19:53.003Z,43.29
2023-06-26T02:20:53.085Z,43.30
2023-06-26T02:21:53.137Z,43.27
2023-06-26T02:22:53.167Z,43.26
2023-06-26T02:23:53.239Z,43.27
2023-06-26T02:24:53.272Z,43.25
2023-06-26T02:25:53.811Z,43.27
2023-06-26T02:26:53.384Z,43.25
2023-06-26T02:27:53.452Z,43.24
2023-06-26T02:28:53.522Z,43.27
2023-06-26T02:29:53.592Z,43.25
2023-06-26T02:30:53.644Z,43.24
2023-06-26T02:31:53.708Z,43.25
2023-06-26T02:32:53.802Z,43.25
2023-06-26T02:33:53.837Z,43.23
2023-06-26T02:34:53.887Z,43.25
2023-06-26T02:35:53.951Z,43.25
2023-06-26T02:36:54.016Z,43.24
2023-06-26T02:37:54.098Z,43.25
2023-06-26T02:38:54.123Z,43.25
2023-06-26T02:39:54.167Z,43.25
2023-06-26T02:40:54.208Z,43.23
2023-06-26T02:41:54.247Z,43.24
2023-06-26T02:42:54.316Z,43.24
2023-06-26T02:43:54.373Z,43.26
2023-06-26T02:44:54.429Z,43.25
2023-06-26T02:45:54.492Z,43.27
2023-06-26T02:46:54.604Z,43.28
2023-06-26T02:47:54.672Z,43.24
2023-06-26T02:48:54.680Z,43.23
2023-06-26T02:49:54.752Z,43.23
2023-06-26T02:50:54.789Z,43.26
2023-06-26T02:51:54.845Z,43.25
2023-06-26T02:52:54.905Z,43.25
2023-06-26T02:53:54.980Z,43.24
2023-06-26T02:54:55.019Z,43.23
2023-06-26T02:55:55.084Z,43.22
2023-06-26T02:56:55.116Z,43.24
2023-06-26T02:57:55.177Z,43.22
2023-06-26T02:58:55.239Z,43.25
2023-06-26T02:59:55.295Z,43.25
2023-06-26T03:00:55.387Z,43.24
2023-06-26T03:01:55.394Z,43.24
2023-06-26T03:02:55.461Z,43.24
2023-06-26T03:03:55.504Z,43.25
2023-06-26T03:04:55.552Z,43.25
2023-06-26T03:05:55.619Z,43.21
2023-06-26T03:06:55.747Z,43.19
2023-06-26T03:07:55.750Z,43.24
2023-06-26T03:08:55.811Z,43.19
2023-06-26T03:09:55.883Z,43.22
2023-06-26T03:10:55.911Z,43.18
2023-06-26T03:11:55.952Z,43.20
2023-06-26T03:12:56.066Z,43.23
2023-06-26T03:13:56.067Z,43.19
2023-06-26T03:14:56.109Z,43.21
2023-06-26T03:15:56.176Z,43.22
2023-06-26T03:16:56.299Z,43.23
2023-06-26T03:17:56.338Z,43.20
2023-06-26T03:18:56.324Z,43.22
2023-06-26T03:19:56.371Z,43.20
2023-06-26T03:20:56.418Z,43.21
2023-06-26T03:21:56.477Z,43.23
2023-06-26T03:22:56.545Z,43.22
2023-06-26T03:23:56.582Z,43.19
2023-06-26T03:24:56.633Z,43.24
2023-06-26T03:25:56.741Z,43.19
2023-06-26T03:26:56.756Z,43.17
2023-06-26T03:27:56.821Z,43.20
2023-06-26T03:28:56.905Z,43.18
2023-06-26T03:29:56.951Z,43.16
2023-06-26T03:30:57.023Z,43.18
2023-06-26T03:31:57.051Z,43.20
2023-06-26T03:32:57.165Z,43.17
2023-06-26T03:33:57.177Z,43.17
2023-06-26T03:34:57.240Z,43.18
2023-06-26T03:35:57.303Z,43.17
2023-06-26T03:36:57.353Z,43.17
2023-06-26T03:37:57.408Z,43.19
2023-06-26T03:38:57.479Z,43.19
2023-06-26T03:39:57.536Z,43.19
2023-06-26T03:40:57.594Z,43.15
2023-06-26T03:41:57.664Z,43.17
2023-06-26T03:42:57.682Z,43.16
2023-06-26T03:43:57.730Z,43.17
2023-06-26T03:44:57.781Z,43.18
2023-06-26T03:45:57.885Z,43.18
2023-06-26T03:46:57.903Z,43.17
2023-06-26T03:47:57.968Z,43.16
2023-06-26T03:48:58.035Z,43.18
2023-06-26T03:49:58.077Z,43.16
2023-06-26T03:50:58.140Z,43.15
2023-06-26T03:51:58.185Z,43.15
2023-06-26T03:52:58.229Z,43.16
2023-06-26T03:53:58.293Z,43.15
2023-06-26T03:54:58.369Z,43.15
2023-06-26T03:55:58.418Z,43.13
2023-06-26T03:56:58.461Z,43.12
2023-06-26T03:57:58.573Z,43.14
2023-06-26T03:58:58.555Z,43.14
2023-06-26T03:59:58.606Z,43.13
2023-06-26T04:00:58.660Z,43.10
2023-06-26T04:01:58.743Z,43.11
2023-06-26T04:02:58.815Z,43.11
2023-06-26T04:03:58.902Z,43.11
2023-06-26T04:04:58.898Z,43.09
2023-06-26T04:05:58.954Z,43.08
2023-06-26T04:06:59.039Z,43.10
2023-06-26T04:07:59.036Z,43.11
2023-06-26T04:08:59.086Z,43.07
2023-06-26T04:09:59.138Z,43.06
2023-06-26T04:10:59.204Z,43.06
2023-06-26T04:11:59.270Z,43.06
2023-06-26T04:12:59.317Z,43.06
2023-06-26T04:13:59.393Z,43.06
2023-06-26T04:14:59.421Z,43.06
2023-06-26T04:15:59.548Z,43.03
2023-06-26T04:16:59.516Z,43.06
2023-06-26T04:17:59.607Z,43.02
2023-06-26T04:18:59.606Z,43.00
2023-06-26T04:19:59.664Z,43.03
2023-06-26T04:20:59.726Z,43.02
2023-06-26T04:21:59.787Z,43.04
2023-06-26T04:22:59.846Z,43.01
2023-06-26T04:23:59.897Z,43.02
2023-06-26T04:24:59.957Z,43.00
2023-06-26T04:26:00.028Z,42.99
2023-06-26T04:27:00.096Z,43.03
2023-06-26T04:28:00.152Z,42.98
2023-06-26T04:29:00.212Z,42.99
2023-06-26T04:30:00.279Z,42.99
2023-06-26T04:31:00.311Z,42.99
2023-06-26T04:32:00.422Z,43.00
2023-06-26T04:33:00.420Z,42.99
2023-06-26T04:34:00.478Z,43.01
2023-06-26T04:35:00.500Z,43.00
2023-06-26T04:36:00.572Z,43.00
2023-06-26T04:37:00.621Z,43.01
2023-06-26T04:38:00.660Z,43.00
2023-06-26T04:39:00.716Z,42.98
2023-06-26T04:40:00.758Z,42.99
2023-06-26T04:41:00.813Z,43.00
2023-06-26T04:42:00.860Z,43.00
2023-06-26T04:43:00.885Z,43.00
2023-06-26T04:44:00.931Z,42.99
2023-06-26T04:45:00.994Z,43.00
2023-06-26T04:46:01.121Z,42.97
2023-06-26T04:47:01.113Z,42.97
2023-06-26T04:48:01.195Z,42.97
2023-06-26T04:49:01.228Z,42.98
2023-06-26T04:50:01.272Z,42.97
2023-06-26T04:51:01.339Z,42.97
2023-06-26T04:52:01.467Z,42.96
2023-06-26T04:53:01.466Z,42.98
2023-06-26T04:54:01.518Z,42.95
2023-06-26T04:55:01.602Z,42.96
2023-06-26T04:56:01.629Z,42.98
2023-06-26T04:57:01.682Z,42.98
2023-06-26T04:58:01.742Z,42.94
2023-06-26T04:59:01.813Z,42.97
2023-06-26T05:00:01.864Z,42.95
2023-06-26T05:01:03.731Z,42.96
2023-06-26T05:02:01.960Z,42.96
2023-06-26T05:03:02.281Z,42.96
2023-06-26T05:04:01.922Z,42.98
2023-06-26T05:05:01.909Z,42.93
2023-06-26T05:06:05.991Z,42.95
2023-06-26T05:07:01.921Z,42.97
2023-06-26T05:08:01.892Z,42.96
2023-06-26T05:09:01.883Z,42.96
2023-06-26T05:10:01.900Z,42.98
2023-06-26T05:11:01.870Z,42.98
2023-06-26T05:12:01.856Z,42.96
2023-06-26T05:13:01.859Z,42.97
2023-06-26T05:14:01.859Z,42.96
2023-06-26T05:15:01.864Z,42.95
2023-06-26T05:16:01.833Z,42.98
2023-06-26T05:17:01.829Z,42.97
2023-06-26T05:18:01.880Z,42.98
2023-06-26T05:19:01.828Z,42.97
2023-06-26T05:20:01.815Z,42.95
2023-06-26T05:21:01.834Z,42.96
2023-06-26T05:22:01.802Z,42.95
2023-06-26T05:23:01.797Z,42.93
2023-06-26T05:24:01.782Z,42.96
2023-06-26T05:25:01.786Z,42.91
2023-06-26T05:26:01.797Z,42.91
2023-06-26T05:27:01.765Z,42.92
2023-06-26T05:28:01.799Z,42.90
2023-06-26T05:29:01.763Z,42.91
2023-06-26T05:30:01.749Z,42.90
2023-06-26T05:31:01.916Z,42.92
2023-06-26T05:32:01.779Z,42.92
2023-06-26T05:33:01.961Z,42.93
2023-06-26T05:34:01.968Z,42.92
2023-06-26T05:35:01.962Z,42.90
2023-06-26T05:36:02.008Z,42.89
2023-06-26T05:37:02.084Z,42.90
2023-06-26T05:38:02.131Z,42.93
2023-06-26T05:39:02.159Z,42.95
2023-06-26T05:40:02.222Z,42.91
2023-06-26T05:41:02.392Z,42.91
2023-06-26T05:42:02.333Z,42.90
2023-06-26T05:43:02.382Z,42.90
2023-06-26T05:44:02.424Z,42.89
2023-06-26T05:45:02.474Z,42.87
2023-06-26T05:46:02.897Z,42.86
2023-06-26T05:47:02.652Z,42.84
2023-06-26T05:48:02.760Z,42.87
2023-06-26T05:49:02.897Z,42.86
2023-06-26T05:50:02.739Z,42.89
2023-06-26T05:51:03.087Z,43.01
2023-06-26T05:52:03.181Z,42.99
2023-06-26T05:53:02.908Z,42.97
2023-06-26T05:54:03.014Z,42.95
2023-06-26T05:55:02.996Z,42.95
2023-06-26T05:56:03.405Z,42.99
2023-06-26T05:57:06.311Z,43.01
2023-06-26T05:58:03.098Z,42.98
2023-06-26T05:59:03.076Z,43.05
2023-06-26T06:00:03.067Z,43.05
2023-06-26T06:01:03.409Z,43.02
2023-06-26T06:02:03.166Z,43.03
2023-06-26T06:03:03.120Z,43.02
2023-06-26T06:04:03.140Z,43.00
2023-06-26T06:05:03.036Z,43.01
2023-06-26T06:06:03.618Z,42.96
2023-06-26T06:07:03.079Z,42.89
2023-06-26T06:08:03.020Z,42.90
2023-06-26T06:09:03.013Z,42.85
2023-06-26T06:10:03.010Z,42.85
2023-06-26T06:11:03.504Z,42.91
2023-06-26T06:12:02.987Z,42.97
2023-06-26T06:13:03.432Z,43.02
2023-06-26T06:14:02.988Z,43.15
2023-06-26T06:15:03.056Z,43.13
2023-06-26T06:16:02.970Z,43.11
2023-06-26T06:17:02.970Z,43.13
2023-06-26T06:18:03.462Z,43.16
2023-06-26T06:19:02.954Z,43.16
2023-06-26T06:20:02.952Z,43.16
2023-06-26T06:21:02.940Z,43.17
2023-06-26T06:22:03.047Z,43.17
2023-06-26T06:23:03.060Z,43.19
2023-06-26T06:24:03.094Z,43.17
2023-06-26T06:25:03.165Z,43.19
2023-06-26T06:26:03.222Z,43.19
2023-06-26T06:27:03.353Z,43.20
2023-06-26T06:28:03.369Z,43.20
2023-06-26T06:29:03.527Z,43.20
2023-06-26T06:30:03.430Z,43.19
2023-06-26T06:31:03.489Z,43.20
2023-06-26T06:32:03.572Z,43.18
2023-06-26T06:33:03.627Z,43.20
2023-06-26T06:34:03.937Z,43.20
2023-06-26T06:35:03.744Z,43.20
2023-06-26T06:36:03.917Z,43.16
2023-06-26T06:37:03.875Z,43.19
2023-06-26T06:38:03.943Z,43.16
2023-06-26T06:39:04.421Z,43.16
2023-06-26T06:40:04.420Z,43.15
2023-06-26T06:41:04.063Z,43.14
2023-06-26T06:42:04.120Z,43.15
2023-06-26T06:43:04.170Z,43.14
2023-06-26T06:44:04.227Z,43.11
2023-06-26T06:45:04.437Z,43.10
2023-06-26T06:46:04.329Z,43.15
2023-06-26T06:47:04.373Z,43.13
2023-06-26T06:48:04.491Z,43.13
2023-06-26T06:49:04.930Z,43.11
2023-06-26T06:50:04.482Z,43.11
2023-06-26T06:51:04.521Z,43.11
2023-06-26T06:52:04.936Z,43.12
2023-06-26T06:53:04.608Z,43.11
2023-06-26T06:54:04.674Z,43.08
2023-06-26T06:55:04.703Z,43.11
2023-06-26T06:56:04.935Z,43.09
2023-06-26T06:57:04.925Z,43.08
2023-06-26T06:58:06.078Z,43.10
2023-06-26T06:59:04.883Z,43.09
2023-06-26T07:00:04.948Z,43.10
2023-06-26T07:01:05.012Z,43.10
2023-06-26T07:02:05.472Z,43.11
2023-06-26T07:03:05.254Z,43.14
2023-06-26T07:04:05.319Z,43.14
2023-06-26T07:05:05.245Z,43.14
2023-06-26T07:06:05.429Z,43.14
2023-06-26T07:07:05.401Z,43.13
2023-06-26T07:08:06.413Z,43.10
2023-06-26T07:09:05.471Z,43.10
2023-06-26T07:10:05.682Z,43.10
2023-06-26T07:11:05.951Z,43.07
2023-06-26T07:12:05.644Z,43.13
2023-06-26T07:13:05.664Z,43.14
2023-06-26T07:14:05.710Z,43.15
2023-06-26T07:15:06.229Z,43.15
2023-06-26T07:16:06.033Z,43.18
2023-06-26T07:17:05.852Z,43.17
2023-06-26T07:18:05.949Z,43.16
2023-06-26T07:19:05.967Z,43.16
2023-06-26T07:20:06.445Z,43.15
2023-06-26T07:21:06.432Z,43.15
2023-06-26T07:22:06.126Z,43.14
2023-06-26T07:23:06.295Z,43.13
2023-06-26T07:24:06.352Z,43.12
2023-06-26T07:25:06.415Z,43.12
2023-06-26T07:26:06.959Z,43.13
2023-06-26T07:27:06.512Z,43.13
2023-06-26T07:28:06.615Z,43.11
2023-06-26T07:29:06.632Z,43.11
2023-06-26T07:30:06.669Z,43.11
2023-06-26T07:31:06.987Z,43.11
2023-06-26T07:32:06.752Z,43.10
2023-06-26T07:33:06.795Z,43.09
2023-06-26T07:34:06.831Z,43.07
2023-06-26T07:35:06.882Z,43.05
2023-06-26T07:36:06.952Z,43.06
2023-06-26T07:37:06.931Z,43.26
2023-06-26T07:38:10.228Z,43.26
2023-06-26T07:39:07.036Z,43.28
2023-06-26T07:40:06.993Z,43.40
2023-06-26T07:41:07.447Z,43.64
2023-06-26T07:42:07.107Z,43.73
2023-06-26T07:43:06.959Z,43.82
2023-06-26T07:44:06.952Z,43.92
2023-06-26T07:45:06.973Z,43.84
2023-06-26T07:46:06.960Z,44.16
2023-06-26T07:47:06.976Z,44.23
2023-06-26T07:48:06.965Z,44.38
2023-06-26T07:49:06.925Z,44.71
2023-06-26T07:50:06.920Z,44.94
2023-06-26T07:51:06.956Z,45.11
2023-06-26T07:52:06.906Z,45.09
2023-06-26T07:53:06.950Z,44.85
2023-06-26T07:54:06.886Z,44.81
2023-06-26T07:55:06.888Z,44.73
2023-06-26T07:56:06.976Z,44.48
2023-06-26T07:57:07.135Z,44.07
2023-06-26T07:58:06.910Z,44.01
2023-06-26T07:59:06.857Z,43.24
2023-06-26T08:00:06.846Z,43.04
2023-06-26T08:01:06.850Z,43.09
2023-06-26T08:02:06.836Z,43.06
2023-06-26T08:03:09.054Z,43.00
2023-06-26T08:04:07.121Z,42.92
2023-06-26T08:05:06.889Z,42.83
2023-06-26T08:06:06.974Z,42.74
2023-06-26T08:07:06.885Z,42.65
2023-06-26T08:08:06.825Z,42.51
2023-06-26T08:09:06.792Z,42.23
2023-06-26T08:10:06.805Z,42.32
2023-06-26T08:11:06.982Z,42.32
2023-06-26T08:12:06.752Z,42.25
2023-06-26T08:13:06.766Z,42.27
2023-06-26T08:14:06.801Z,42.24
2023-06-26T08:15:06.737Z,42.19
2023-06-26T08:16:06.983Z,42.20
2023-06-26T08:17:06.736Z,42.26
2023-06-26T08:18:06.806Z,42.07
2023-06-26T08:19:06.709Z,41.90
2023-06-26T08:20:06.697Z,41.29
2023-06-26T08:21:07.867Z,41.15
2023-06-26T08:22:06.725Z,41.12
2023-06-26T08:23:06.753Z,40.96
2023-06-26T08:24:06.814Z,40.63
2023-06-26T08:25:06.808Z,40.75
2023-06-26T08:26:06.856Z,40.74
2023-06-26T08:27:06.826Z,40.92
2023-06-26T08:28:06.855Z,41.08
2023-06-26T08:29:07.273Z,41.14
2023-06-26T08:30:07.167Z,41.23
2023-06-26T08:31:06.970Z,41.24
2023-06-26T08:32:06.930Z,41.30
2023-06-26T08:33:07.011Z,41.38
2023-06-26T08:34:06.969Z,41.49
2023-06-26T08:35:07.006Z,41.62
2023-06-26T08:36:07.481Z,41.68
2023-06-26T08:37:07.003Z,41.67
2023-06-26T08:38:07.017Z,41.72
2023-06-26T08:39:07.027Z,41.69
2023-06-26T08:40:07.035Z,41.76
2023-06-26T08:41:09.985Z,41.83
2023-06-26T08:42:07.024Z,41.73
2023-06-26T08:43:10.244Z,41.68
2023-06-26T08:44:07.048Z,41.78
2023-06-26T08:45:07.144Z,41.83
2023-06-26T08:46:08.649Z,41.76
2023-06-26T08:47:08.203Z,41.68
2023-06-26T08:48:07.408Z,41.56
2023-06-26T08:49:07.658Z,41.53
2023-06-26T08:50:07.374Z,41.59
2023-06-26T08:51:07.484Z,41.72
2023-06-26T08:52:07.423Z,42.02
2023-06-26T08:53:07.564Z,41.86
2023-06-26T08:54:07.424Z,41.80
2023-06-26T08:55:07.431Z,41.74
2023-06-26T08:56:07.476Z,41.74
2023-06-26T08:57:07.429Z,41.53
2023-06-26T08:58:07.447Z,41.69
2023-06-26T08:59:07.494Z,41.61
2023-06-26T09:00:07.493Z,41.40
2023-06-26T09:01:07.998Z,41.34
2023-06-26T09:02:07.599Z,41.33
2023-06-26T09:03:07.602Z,41.32
2023-06-26T09:04:07.568Z,41.47
2023-06-26T09:05:07.548Z,41.78
2023-06-26T09:06:07.992Z,41.74
2023-06-26T09:07:07.573Z,41.82
2023-06-26T09:08:07.585Z,41.82
2023-06-26T09:09:07.990Z,41.85
2023-06-26T09:10:07.551Z,41.85
2023-06-26T09:11:07.576Z,41.91
2023-06-26T09:12:07.611Z,41.98
2023-06-26T09:13:20.811Z,42.08
2023-06-26T09:14:07.631Z,42.14
2023-06-26T09:15:07.713Z,42.19
2023-06-26T09:16:07.697Z,42.30
2023-06-26T09:17:07.676Z,42.36
2023-06-26T09:18:07.714Z,42.48
2023-06-26T09:19:07.627Z,42.52
2023-06-26T09:20:07.628Z,42.54
2023-06-26T09:21:07.584Z,42.67
2023-06-26T09:22:07.587Z,42.73
2023-06-26T09:23:07.577Z,42.75
2023-06-26T09:24:08.000Z,42.80
2023-06-26T09:25:07.574Z,42.83
2023-06-26T09:26:07.589Z,42.81
2023-06-26T09:27:07.553Z,42.94
2023-06-26T09:28:08.014Z,42.99
2023-06-26T09:29:07.534Z,43.08
2023-06-26T09:30:07.531Z,43.17
2023-06-26T09:31:08.789Z,43.36
2023-06-26T09:32:07.557Z,43.50
2023-06-26T09:33:08.029Z,43.30
2023-06-26T09:34:07.689Z,43.30
2023-06-26T09:35:07.513Z,43.05
2023-06-26T09:36:08.520Z,42.16
2023-06-26T09:37:07.523Z,42.32
2023-06-26T09:38:07.488Z,42.48
2023-06-26T09:39:07.470Z,42.48
2023-06-26T09:40:10.676Z,42.59
2023-06-26T09:41:07.528Z,42.81
2023-06-26T09:42:07.782Z,42.83
2023-06-26T09:43:07.441Z,42.90
2023-06-26T09:44:07.427Z,42.99
2023-06-26T09:45:07.420Z,43.00
2023-06-26T09:46:07.488Z,43.05
2023-06-26T09:47:07.507Z,43.21
2023-06-26T09:48:07.466Z,43.22
2023-06-26T09:49:07.504Z,43.20
2023-06-26T09:50:07.505Z,43.31
2023-06-26T09:51:13.083Z,43.33
2023-06-26T09:52:07.389Z,43.55
2023-06-26T09:53:07.361Z,43.54
2023-06-26T09:54:07.388Z,43.52
2023-06-26T09:55:07.341Z,43.59
2023-06-26T09:56:07.351Z,43.42
2023-06-26T09:57:07.334Z,43.49
2023-06-26T09:58:07.322Z,43.12
2023-06-26T09:59:07.338Z,43.09
2023-06-26T10:00:07.308Z,42.81
2023-06-26T10:01:08.086Z,42.65
2023-06-26T10:02:07.470Z,42.58
2023-06-26T10:03:09.177Z,42.30
2023-06-26T10:04:07.883Z,42.26
2023-06-26T10:05:07.515Z,42.16
2023-06-26T10:06:07.382Z,42.26
2023-06-26T10:07:07.585Z,42.49
2023-06-26T10:08:07.253Z,42.15
2023-06-26T10:09:07.241Z,42.13
2023-06-26T10:10:07.230Z,42.16
2023-06-26T10:11:07.244Z,42.01
2023-06-26T10:12:07.634Z,41.98
2023-06-26T10:13:07.215Z,41.80
2023-06-26T10:14:17.031Z,41.86
2023-06-26T10:15:07.205Z,41.79
2023-06-26T10:16:07.223Z,41.67
2023-06-26T10:17:07.520Z,41.67
2023-06-26T10:18:07.237Z,41.84
2023-06-26T10:19:07.185Z,41.85
2023-06-26T10:20:07.165Z,41.75
2023-06-26T10:21:07.234Z,41.63
2023-06-26T10:22:07.648Z,41.63
2023-06-26T10:23:07.145Z,41.59
2023-06-26T10:24:07.134Z,41.56
2023-06-26T10:25:07.528Z,41.34
2023-06-26T10:26:07.125Z,41.20
2023-06-26T10:27:06.135Z,40.92
2023-06-26T10:28:07.115Z,41.17
2023-06-26T10:29:07.094Z,41.26
2023-06-26T10:30:07.531Z,41.04
2023-06-26T10:31:07.127Z,41.01
2023-06-26T10:32:07.526Z,41.03
2023-06-26T10:33:07.159Z,41.12
2023-06-26T10:34:07.067Z,40.79
2023-06-26T10:35:07.127Z,40.62
2023-06-26T10:36:07.121Z,40.44
2023-06-26T10:37:07.173Z,40.47
2023-06-26T10:38:07.283Z,40.41
2023-06-26T10:39:07.363Z,39.94
2023-06-26T10:40:07.345Z,39.92
2023-06-26T10:41:07.397Z,39.33
2023-06-26T10:42:07.455Z,39.56
2023-06-26T10:43:07.562Z,39.80
2023-06-26T10:44:07.557Z,40.24
2023-06-26T10:45:07.618Z,40.20
2023-06-26T10:46:08.027Z,40.08
2023-06-26T10:47:07.733Z,39.97
2023-06-26T10:48:07.857Z,39.75
2023-06-26T10:49:07.826Z,39.78
2023-06-26T10:50:12.926Z,40.32
2023-06-26T10:51:07.868Z,40.42
2023-06-26T10:52:08.047Z,40.53
2023-06-26T10:53:07.861Z,40.56
2023-06-26T10:54:07.874Z,40.64
2023-06-26T10:55:07.850Z,40.65
2023-06-26T10:56:08.031Z,40.73
2023-06-26T10:57:07.831Z,40.76
2023-06-26T10:58:07.856Z,40.76
2023-06-26T10:59:07.838Z,40.75
2023-06-26T11:00:07.824Z,40.82
2023-06-26T11:01:08.085Z,41.03
2023-06-26T11:02:10.053Z,41.11
2023-06-26T11:03:07.889Z,41.18
2023-06-26T11:04:07.823Z,41.32
2023-06-26T11:05:07.783Z,41.48
2023-06-26T11:06:08.037Z,41.46
2023-06-26T11:07:08.091Z,41.47
2023-06-26T11:08:07.764Z,41.49
2023-06-26T11:09:07.749Z,41.54
2023-06-26T11:10:07.776Z,41.57
2023-06-26T11:11:07.743Z,41.59
2023-06-26T11:12:08.046Z,41.62
2023-06-26T11:13:07.730Z,41.64
2023-06-26T11:14:08.063Z,41.66
2023-06-26T11:15:07.723Z,41.71
2023-06-26T11:16:07.709Z,41.71
2023-06-26T11:17:07.731Z,41.73
2023-06-26T11:18:07.736Z,41.75
2023-06-26T11:19:08.051Z,41.75
2023-06-26T11:20:07.689Z,41.76
2023-06-26T11:21:07.678Z,41.81
2023-06-26T11:22:07.926Z,41.81
2023-06-26T11:23:07.666Z,41.84
2023-06-26T11:24:07.655Z,41.83
2023-06-26T11:25:07.649Z,41.89
2023-06-26T11:26:07.693Z,41.90
2023-06-26T11:27:07.635Z,41.90
2023-06-26T11:28:07.630Z,41.95
2023-06-26T11:29:07.627Z,41.97
2023-06-26T11:30:07.628Z,41.97
2023-06-26T11:31:07.630Z,42.00
2023-06-26T11:32:07.719Z,42.04
2023-06-26T11:33:08.144Z,42.07
2023-06-26T11:34:07.620Z,42.11
2023-06-26T11:35:07.598Z,42.07
2023-06-26T11:36:07.576Z,42.12
2023-06-26T11:37:08.062Z,42.13
2023-06-26T11:38:07.573Z,42.15
2023-06-26T11:39:07.541Z,42.19
2023-06-26T11:40:07.548Z,42.19
2023-06-26T11:41:07.529Z,42.19
2023-06-26T11:42:07.611Z,42.18
2023-06-26T11:43:07.520Z,42.18
2023-06-26T11:44:07.511Z,42.19
2023-06-26T11:45:07.514Z,42.21
2023-06-26T11:46:07.514Z,42.20
2023-06-26T11:47:07.497Z,42.20
2023-06-26T11:48:07.657Z,42.19
2023-06-26T11:49:07.567Z,42.19
2023-06-26T11:50:07.491Z,42.16
2023-06-26T11:51:07.459Z,42.16
2023-06-26T11:52:07.461Z,42.17
2023-06-26T11:53:07.467Z,42.19
2023-06-26T11:54:07.721Z,42.23
2023-06-26T11:55:07.435Z,42.21
2023-06-26T11:56:07.444Z,42.22
2023-06-26T11:57:07.563Z,42.20
2023-06-26T11:58:07.467Z,42.22
2023-06-26T11:59:10.356Z,42.26
2023-06-26T12:00:07.417Z,42.25
2023-06-26T12:01:07.416Z,42.27
2023-06-26T12:02:07.403Z,42.27
2023-06-26T12:03:07.537Z,42.25
2023-06-26T12:04:07.497Z,42.26
2023-06-26T12:05:07.372Z,42.32
2023-06-26T12:06:07.359Z,42.30
2023-06-26T12:07:07.584Z,42.35
2023-06-26T12:08:07.347Z,42.38
2023-06-26T12:09:08.335Z,42.39
2023-06-26T12:10:07.335Z,42.41
2023-06-26T12:11:07.325Z,42.42
2023-06-26T12:12:07.590Z,42.46
2023-06-26T12:13:07.567Z,42.47
2023-06-26T12:14:07.337Z,42.48
2023-06-26T12:15:07.292Z,42.46
2023-06-26T12:16:08.071Z,42.45
2023-06-26T12:17:07.285Z,42.43
2023-06-26T12:18:07.398Z,42.41
2023-06-26T12:19:07.288Z,42.41
2023-06-26T12:20:07.266Z,42.39
2023-06-26T12:21:07.578Z,42.40
2023-06-26T12:22:07.281Z,42.36
2023-06-26T12:23:07.244Z,42.39
2023-06-26T12:24:07.319Z,42.40
2023-06-26T12:25:07.270Z,42.40
2023-06-26T12:26:07.583Z,42.41
2023-06-26T12:27:07.270Z,42.41
2023-06-26T12:28:07.266Z,42.38
2023-06-26T12:29:07.272Z,42.40
2023-06-26T12:30:07.413Z,42.41
2023-06-26T12:31:07.261Z,42.43
2023-06-26T12:32:07.291Z,42.50
2023-06-26T12:33:07.307Z,42.50
2023-06-26T12:34:07.264Z,42.51
2023-06-26T12:35:07.299Z,42.53
2023-06-26T12:36:07.717Z,42.55
2023-06-26T12:37:07.376Z,42.57
2023-06-26T12:38:07.437Z,42.59
2023-06-26T12:39:07.256Z,42.61
2023-06-26T12:40:07.324Z,42.62
2023-06-26T12:41:07.901Z,42.62
2023-06-26T12:42:07.304Z,42.64
2023-06-26T12:43:07.287Z,42.63
2023-06-26T12:44:07.286Z,42.62
2023-06-26T12:45:10.132Z,42.63
2023-06-26T12:46:07.430Z,42.66
2023-06-26T12:47:07.607Z,42.68
2023-06-26T12:48:07.357Z,42.65
2023-06-26T12:49:15.227Z,42.67
2023-06-26T12:50:07.374Z,42.68
2023-06-26T12:51:07.340Z,42.67
2023-06-26T12:52:07.633Z,42.66
2023-06-26T12:53:07.324Z,42.64